Eastern Wv Rgnl/Shepherd Fld Information

FAA: MRB - ICAO: KMRB

Eastern Wv Rgnl/Shepherd Fld (Airport) Location

State West Virginia
County Berkeley
City Martinsburg
Eastern Wv Rgnl/Shepherd Fld (Airport) is 4 miles south of Martinsburg, WV.
Latitude 39-24-08.4845N
Longitude 077-58-58.7967W
Elevation 564ft

Eastern Wv Rgnl/Shepherd Fld METARs

METAR KMRB 171953Z 29013G20KT 10SM BKN095 27/06 A2982 RMK AO2 SLP094 T02670056
Altimeter 29.82"
Temperature 26.7°C (80.1°F)
Wind 290° at 13KT with gusts to 20KT
Clouds broken at 9,500ft
Visibility 10.0mi
Time observed: 2022-05-17T19:53:00Z

Eastern Wv Rgnl/Shepherd Fld (Airport) Details

Status Operational
Activation June 1938
Ownership Public
Usage Public
Chart WASHINGTON
ATC on-site Yes
Beacon schedule sunset-sunrise
Beacon color clear green

Eastern Wv Rgnl/Shepherd Fld (Airport) Contacts

Owner EASTERN WVA REG ARPT AUTH
Owner address 170 AVIATION WAY RM 105, MARTINSBURG, WV 25405
Owner phone 304-263-2106
Manager NEAL I COLLETT
Manager address 600 OTTO COLLETT RD, ELKINS, WV 26241
Manager phone 304-636-1071

Eastern Wv Rgnl/Shepherd Fld Radio Frequencies

Eastern Wv Rgnl/Shepherd Fld (Airport) Radio Frequencies

UNICOM 122.95
Common traffic advisory frequency (CTAF) 124.3